Raiatea — V7VA3 — position and weather

sailwx.info

Track history (hours):
 
Tides and Currents Weather Stations Pressure Air Temp Water Temp Dewpoint Dewpoint Depression Visibility Wind Speed Wind Dir Waves Ship Positions

Raiatea

Last reported at 2017-Dec-10 19:23 UTC. Time now 2018-Jan-18 07:48 UTC.
Position N 31°12' W 123°40'.
Warning: this ship's position is 38 days out of date.

Length 292 m; draft 18.4 m.

Type: Ship. MMSI: 538004070.

Date/timePositionNaut miles runAvg speedWind from/ knotsBaromVisibWave heightAir tempDewpointWater temp
2017-Dec-10 19:23N 31°12' W 123°40'513.7
2017-Dec-10 19:00N 31°17' W 123°42'713.6
2017-Dec-10 18:30N 31°23' W 123°46'713.6
2017-Dec-10 18:00N 31°29' W 123°49'713.5
2017-Dec-10 17:30N 31°35' W 123°53'713.5
2017-Dec-10 17:00N 31°41' W 123°57'2113.4
2017-Dec-10 15:25N 32°00' W 124°08'613.2
2017-Dec-10 14:57N 32°06' W 124°11'613.3
2017-Dec-10 14:29N 32°11' W 124°14'6013.5
2017-Dec-10 10:03N 33°04' W 124°48'013.5
2017-Dec-10 10:01N 33°05' W 124°49'713.5
2017-Dec-10 09:30N 33°10' W 124°53'713.4
2017-Dec-10 09:00N 33°16' W 124°57'713.5
2017-Dec-10 08:30N 33°22' W 125°01'713.6
2017-Dec-10 08:00N 33°27' W 125°06'813.5
2017-Dec-10 07:26N 33°34' W 125°11'713.3
2017-Dec-10 06:54N 33°40' W 125°15'1013.2
2017-Dec-10 06:10N 33°48' W 125°21'212.8
2017-Dec-10 06:00N 33°50' W 125°22'612.9
2017-Dec-10 05:31N 33°56' W 125°26'713.1
2017-Dec-10 05:00N 34°01' W 125°30'713.1
2017-Dec-10 04:30N 34°07' W 125°35'713.2
2017-Dec-10 04:01N 34°12' W 125°39'713.2
2017-Dec-10 03:30N 34°18' W 125°43'713.3
2017-Dec-10 03:01N 34°24' W 125°47'713.1
2017-Dec-10 02:31N 34°29' W 125°51'713.3
2017-Dec-10 02:00N 34°35' W 125°55'713.3
2017-Dec-10 01:31N 34°41' W 125°59'713.3
2017-Dec-10 01:00N 34°46' W 126°04'713.5
2017-Dec-10 00:30N 34°52' W 126°08'713.5
2017-Dec-09 23:58N 34°58' W 126°12'613.4
2017-Dec-09 23:30N 35°04' W 126°16'1813.5
2017-Dec-09 22:10N 35°19' W 126°28'413.4
2017-Dec-09 21:52N 35°23' W 126°30'513.1
2017-Dec-09 21:31N 35°27' W 126°33'713.1
2017-Dec-09 21:00N 35°32' W 126°38'713.2
2017-Dec-09 20:31N 35°38' W 126°42'1213.1
2017-Dec-09 19:33N 35°49' W 126°49'113.2
2017-Dec-09 19:29N 35°49' W 126°50'713.4
2017-Dec-09 19:00N 35°55' W 126°54'713.2
2017-Dec-09 18:30N 36°00' W 126°59'21012.6
2017-Dec-09 01:49N 39°09' W 128°56'2012.2
2017-Dec-09 00:11N 39°28' W 129°02'212.1
2017-Dec-09 00:00N 39°30' W 129°03'2611.9
2017-Dec-08 21:50N 39°55' W 129°12'411.6
2017-Dec-08 21:30N 39°59' W 129°13'611.8
2017-Dec-08 21:00N 40°05' W 129°15'611.8
2017-Dec-08 20:30N 40°10' W 129°17'611.9
2017-Dec-08 20:00N 40°16' W 129°19'611.5
2017-Dec-08 19:30N 40°22' W 129°20'611.7
2017-Dec-08 19:00N 40°28' W 129°20'611.7
2017-Dec-08 18:31N 40°34' W 129°20'611.9
2017-Dec-08 18:00N 40°40' W 129°20'612.0
2017-Dec-08 17:31N 40°45' W 129°19'612.0
2017-Dec-08 17:00N 40°51' W 129°19'611.9
2017-Dec-08 16:30N 40°58' W 129°19'611.6
2017-Dec-08 16:00N 41°03' W 129°19'611.7
2017-Dec-08 15:31N 41°09' W 129°19'611.7
2017-Dec-08 15:00N 41°15' W 129°19'611.6
2017-Dec-08 14:30N 41°21' W 129°19'611.8
2017-Dec-08 14:00N 41°27' W 129°19'611.7
2017-Dec-08 13:30N 41°33' W 129°18'611.5
2017-Dec-08 13:00N 41°38' W 129°18'611.7
2017-Dec-08 12:30N 41°44' W 129°19'611.8
2017-Dec-08 12:01N 41°50' W 129°18'612.0
2017-Dec-08 11:30N 41°56' W 129°18'712.0
2017-Dec-08 10:56N 42°03' W 129°18'512.0
2017-Dec-08 10:30N 42°08' W 129°18'612.0
2017-Dec-08 10:01N 42°14' W 129°17'611.8
2017-Dec-08 09:31N 42°20' W 129°17'1216.2
2017-Dec-08 08:45N 42°32' W 129°16'0 0.1
2017-Dec-08 08:28N 42°32' W 129°16'1312.0
2017-Dec-08 07:22N 42°45' W 129°17'412.3
2017-Dec-08 07:00N 42°50' W 129°16'612.0
2017-Dec-08 06:31N 42°56' W 129°16'611.9
2017-Dec-08 06:00N 43°02' W 129°16'612.0
2017-Dec-08 05:30N 43°08' W 129°15'612.5
2017-Dec-08 05:01N 43°14' W 129°14'612.6
2017-Dec-08 04:30N 43°20' W 129°14'912.5
2017-Dec-08 03:47N 43°29' W 129°14'312.2
2017-Dec-08 03:30N 43°33' W 129°14'612.5
2017-Dec-08 03:00N 43°39' W 129°13'712.3
2017-Dec-08 02:28N 43°45' W 129°13'712.3
2017-Dec-08 01:56N 43°52' W 129°12'512.3
2017-Dec-08 01:30N 43°57' W 129°12'612.2
2017-Dec-08 01:00N 44°03' W 129°12'612.0
2017-Dec-08 00:29N 44°09' W 129°11'612.0
2017-Dec-08 00:00N 44°15' W 129°11'612.1
2017-Dec-07 23:30N 44°21' W 129°10'612.2
2017-Dec-07 23:00N 44°27' W 129°10'611.9
2017-Dec-07 22:30N 44°33' W 129°10'611.7
2017-Dec-07 22:00N 44°39' W 129°09'611.8
2017-Dec-07 21:30N 44°45' W 129°09'611.7
2017-Dec-07 21:00N 44°51' W 129°08'611.4
2017-Dec-07 20:31N 44°57' W 129°08'611.5
2017-Dec-07 20:00N 45°02' W 129°08'611.8
2017-Dec-07 19:30N 45°08' W 129°07'611.8
2017-Dec-07 19:00N 45°14' W 129°07'611.8
2017-Dec-07 18:29N 45°20' W 129°06'711.8
2017-Dec-07 17:56N 45°27' W 129°06'1012.1
2017-Dec-07 17:06N 45°37' W 129°05'420.5
2017-Dec-07 16:54N 45°41' W 129°05'3 8.1
2017-Dec-07 16:30N 45°44' W 129°05'712.4
2017-Dec-07 15:58N 45°51' W 129°05'612.4
2017-Dec-07 15:30N 45°56' W 129°04'1712.5
2017-Dec-07 14:11N 46°13' W 129°03'212.4
2017-Dec-07 14:00N 46°15' W 129°03'612.3
2017-Dec-07 13:30N 46°21' W 129°03'611.7
2017-Dec-07 13:00N 46°27' W 129°02'612.7
2017-Dec-07 12:30N 46°31' W 128°55'612.7
2017-Dec-07 12:00N 46°35' W 128°47'612.7
2017-Dec-07 11:30N 46°39' W 128°40'612.7
2017-Dec-07 11:01N 46°43' W 128°33'713.0
2017-Dec-07 10:30N 46°47' W 128°25'612.8
2017-Dec-07 10:01N 46°51' W 128°18'612.7
2017-Dec-07 09:30N 46°55' W 128°11'612.6
2017-Dec-07 09:00N 46°59' W 128°04'612.3
2017-Dec-07 08:30N 47°02' W 127°57'612.1
2017-Dec-07 08:01N 47°06' W 127°50'612.2
2017-Dec-07 07:30N 47°10' W 127°42'611.9
2017-Dec-07 07:00N 47°14' W 127°36'612.0
2017-Dec-07 06:29N 47°18' W 127°28'612.1
2017-Dec-07 06:00N 47°21' W 127°22'612.3
2017-Dec-07 05:31N 47°25' W 127°15'612.2
2017-Dec-07 04:59N 47°29' W 127°07'1512.1
2017-Dec-07 03:43N 47°38' W 126°50'412.0
2017-Dec-07 03:23N 47°41' W 126°45'1112.1
2017-Dec-07 02:27N 47°48' W 126°32'512.0
2017-Dec-07 02:00N 47°51' W 126°25'612.3
2017-Dec-07 01:30N 47°55' W 126°18'1212.1
2017-Dec-07 00:32N 48°02' W 126°05'012.0
2017-Dec-07 00:30N 48°02' W 126°04'712.2
2017-Dec-06 23:57N 48°06' W 125°56'812.3
2017-Dec-06 23:16N 48°11' W 125°46'312.3
2017-Dec-06 23:00N 48°13' W 125°42'612.2
2017-Dec-06 22:29N 48°18' W 125°35'612.0
2017-Dec-06 22:01N 48°21' W 125°28'612.3
2017-Dec-06 21:30N 48°25' W 125°21'612.4
2017-Dec-06 21:00N 48°29' W 125°14'  
2017-Dec-04 10:29N 49°01' W 123°10'0 0.0
2017-Dec-04 09:59N 49°01' W 123°10'0 0.0
2017-Dec-04 09:29N 49°01' W 123°10'0 0.0
2017-Dec-04 09:00N 49°01' W 123°10'0 0.0
2017-Dec-04 08:30N 49°01' W 123°10'0 0.0
2017-Dec-04 07:59N 49°01' W 123°10'0 0.0
2017-Dec-04 07:29N 49°01' W 123°10'0 0.0
2017-Dec-04 06:59N 49°01' W 123°10'0 0.0
2017-Dec-04 06:29N 49°01' W 123°10'0 0.0
2017-Dec-04 05:59N 49°01' W 123°10'0 0.0
2017-Dec-04 05:29N 49°01' W 123°10'0 0.0
2017-Dec-04 04:59N 49°01' W 123°10'0 0.0
2017-Dec-04 04:29N 49°01' W 123°10'0 0.0
2017-Dec-04 04:00N 49°01' W 123°10'0 0.0
2017-Dec-04 03:29N 49°01' W 123°10'0 0.0
2017-Dec-04 02:59N 49°01' W 123°10'0 0.0
2017-Dec-04 02:27N 49°01' W 123°10'0 0.0
2017-Dec-04 01:59N 49°01' W 123°10'0 0.0
2017-Dec-04 01:29N 49°01' W 123°10'0 0.0
2017-Dec-04 00:59N 49°01' W 123°10'0 0.0
2017-Dec-04 00:30N 49°01' W 123°10'0 0.0
2017-Dec-03 23:59N 49°01' W 123°10'0 0.0
2017-Dec-03 23:30N 49°01' W 123°10'0 0.0
2017-Dec-03 23:00N 49°01' W 123°10'0 0.0
2017-Dec-03 22:29N 49°01' W 123°10'0 0.0
2017-Dec-03 21:59N 49°01' W 123°10'0 0.0
2017-Dec-03 21:30N 49°01' W 123°10'0 0.0
2017-Dec-03 21:00N 49°01' W 123°10'0 0.0
2017-Dec-03 20:29N 49°01' W 123°10'0 0.0
2017-Dec-03 19:59N 49°01' W 123°10'0 0.0
2017-Dec-03 19:29N 49°01' W 123°10'0 0.0
2017-Dec-03 18:59N 49°01' W 123°10'0 0.0
2017-Dec-03 18:30N 49°01' W 123°10'0 0.0
2017-Dec-03 17:59N 49°01' W 123°10'0 0.0
2017-Dec-03 17:29N 49°01' W 123°10'0 0.0
2017-Dec-03 16:59N 49°01' W 123°10'0 0.0
2017-Dec-03 16:29N 49°01' W 123°10'0 0.0
2017-Dec-03 15:59N 49°01' W 123°10'0 0.0
2017-Dec-03 15:29N 49°01' W 123°10'0 0.0
2017-Dec-03 15:00N 49°01' W 123°10'0 0.0
2017-Dec-03 14:29N 49°01' W 123°10'0 0.0
2017-Dec-03 13:59N 49°01' W 123°10'0 0.0
2017-Dec-03 13:29N 49°01' W 123°10'0 0.0
2017-Dec-03 13:00N 49°01' W 123°10'0 0.0
2017-Dec-03 12:29N 49°01' W 123°10'0 0.0
2017-Dec-03 12:00N 49°01' W 123°10'0 0.0
2017-Dec-03 11:30N 49°01' W 123°10'0 0.0
2017-Dec-03 11:00N 49°01' W 123°10'0 0.0
2017-Dec-03 10:29N 49°01' W 123°10'0 0.0
2017-Dec-03 09:59N 49°01' W 123°10'0 0.0
2017-Dec-03 09:29N 49°01' W 123°10'0 0.0
2017-Dec-03 08:59N 49°01' W 123°10'0 0.0
2017-Dec-03 08:29N 49°01' W 123°10'0 0.0
2017-Dec-03 07:56N 49°01' W 123°10'0 0.0
2017-Dec-03 07:29N 49°01' W 123°10'0 0.0
2017-Dec-03 06:44N 49°01' W 123°10'0 0.0
2017-Dec-03 06:30N 49°01' W 123°10'0 0.0
2017-Dec-03 05:59N 49°01' W 123°10'0 0.0
2017-Dec-03 05:26N 49°01' W 123°10'0 0.0
2017-Dec-03 04:59N 49°01' W 123°10'0 0.0
2017-Dec-03 04:29N 49°01' W 123°10'0 0.0
2017-Dec-03 03:57N 49°01' W 123°10'0 0.0
2017-Dec-03 03:29N 49°01' W 123°10'0 0.0
2017-Dec-03 02:59N 49°01' W 123°10'0 0.0
2017-Dec-03 02:26N 49°01' W 123°10'0 0.0
2017-Dec-03 01:53N 49°01' W 123°10'0 0.0
2017-Dec-03 01:30N 49°01' W 123°10'0 0.0
2017-Dec-03 00:59N 49°01' W 123°10'0 0.0
2017-Dec-03 00:29N 49°01' W 123°10'0 0.0
2017-Dec-02 23:59N 49°01' W 123°10'0 0.0
2017-Dec-02 23:30N 49°01' W 123°10'0 0.0
2017-Dec-02 22:59N 49°01' W 123°10'0 0.0
2017-Dec-02 22:24N 49°01' W 123°10'0 0.0
2017-Dec-02 21:59N 49°01' W 123°10'0 0.0
2017-Dec-02 21:29N 49°01' W 123°10'0 0.0
2017-Dec-02 21:00N 49°01' W 123°10'0 0.0
2017-Dec-02 20:29N 49°01' W 123°10'0 0.0
2017-Dec-02 20:00N 49°01' W 123°10'0 0.2
2017-Dec-02 19:30N 49°01' W 123°10'1 2.8
2017-Dec-02 19:00N 49°01' W 123°12'3 6.9
2017-Dec-02 18:30N 49°01' W 123°17'5 9.1
2017-Dec-02 18:01N 49°04' W 123°23'4 8.5
2017-Dec-02 17:30N 49°08' W 123°26'511.0
2017-Dec-02 17:01N 49°12' W 123°22'612.7
2017-Dec-02 16:30N 49°18' W 123°17'2 4.7
2017-Dec-02 15:59N 49°18' W 123°13'0 0.0
2017-Dec-02 15:29N 49°18' W 123°13'0 0.1
2017-Dec-02 14:59N 49°18' W 123°13'0 0.1
2017-Dec-02 14:29N 49°18' W 123°13'0 0.1
2017-Dec-02 13:59N 49°18' W 123°13'0 0.0
2017-Dec-02 13:26N 49°18' W 123°13'0 0.0
2017-Dec-02 12:59N 49°18' W 123°13'0 0.1
2017-Dec-02 12:29N 49°18' W 123°13'0 0.0
2017-Dec-02 11:59N 49°18' W 123°13'0 0.0
2017-Dec-02 11:26N 49°18' W 123°13'0 0.0
2017-Dec-02 10:59N 49°18' W 123°13'0 0.1
2017-Dec-02 10:29N 49°18' W 123°13'0 0.1
2017-Dec-02 09:59N 49°18' W 123°13'0 0.0
2017-Dec-02 09:29N 49°18' W 123°13'0 0.0
2017-Dec-02 08:59N 49°18' W 123°13'0 0.1
2017-Dec-02 08:29N 49°18' W 123°13'0 0.1
2017-Dec-02 07:56N 49°18' W 123°13'0 0.1
2017-Dec-02 07:29N 49°18' W 123°13'0 0.1
2017-Dec-02 06:59N 49°18' W 123°13'0 0.0
2017-Dec-02 06:29N 49°18' W 123°13'0 0.2
2017-Dec-02 05:59N 49°18' W 123°13'0 0.3
2017-Dec-02 05:29N 49°18' W 123°13'0 0.1
2017-Dec-02 04:59N 49°18' W 123°13'0 0.1
2017-Dec-02 04:29N 49°18' W 123°13'0 0.1
2017-Dec-02 03:59N 49°18' W 123°13'0 0.0
2017-Dec-02 03:29N 49°18' W 123°13'0 0.0
2017-Dec-02 02:59N 49°18' W 123°13'0 0.0
2017-Dec-02 02:26N 49°18' W 123°13'0 0.0
2017-Dec-02 01:59N 49°18' W 123°13'0 0.0
2017-Dec-02 01:26N 49°18' W 123°13'0 0.0
2017-Dec-02 00:59N 49°18' W 123°13'0 0.2
2017-Dec-02 00:29N 49°18' W 123°13'0 0.2
2017-Dec-01 23:59N 49°18' W 123°13'0 0.1
2017-Dec-01 23:26N 49°18' W 123°13'0 0.1
2017-Dec-01 22:59N 49°18' W 123°13'0 0.0
2017-Dec-01 22:29N 49°18' W 123°13'0 0.1
2017-Dec-01 21:59N 49°18' W 123°12'0 0.0
2017-Dec-01 21:29N 49°18' W 123°12'0 0.0
2017-Dec-01 20:56N 49°18' W 123°12'0 0.0
2017-Dec-01 20:29N 49°18' W 123°12'0 0.0
2017-Dec-01 19:53N 49°18' W 123°12'0 0.0
2017-Dec-01 19:29N 49°18' W 123°12'0 0.0
2017-Dec-01 18:59N 49°18' W 123°12'0 0.1
2017-Dec-01 18:29N 49°18' W 123°12'0 0.1
2017-Dec-01 17:59N 49°18' W 123°12'0 0.3
2017-Dec-01 17:29N 49°18' W 123°13'0 0.1
2017-Dec-01 16:56N 49°18' W 123°13'0 0.2
2017-Dec-01 16:29N 49°18' W 123°13'0 0.1
2017-Dec-01 15:59N 49°18' W 123°13'0 0.2
2017-Dec-01 15:29N 49°18' W 123°13'0 0.1
2017-Dec-01 14:56N 49°18' W 123°13'0 0.0
2017-Dec-01 14:26N 49°18' W 123°13'0 0.1
2017-Dec-01 13:56N 49°18' W 123°13'0 0.1
2017-Dec-01 13:29N 49°18' W 123°13'0 0.0
2017-Dec-01 12:59N 49°18' W 123°13'0 0.0
2017-Dec-01 12:29N 49°18' W 123°13'0 0.1
2017-Dec-01 11:59N 49°18' W 123°13'0 0.1
2017-Dec-01 11:26N 49°18' W 123°13'0 0.1
2017-Dec-01 10:56N 49°18' W 123°13'0 0.0
2017-Dec-01 10:29N 49°18' W 123°13'0 0.0
2017-Dec-01 09:59N 49°18' W 123°13'0 0.0
2017-Dec-01 09:29N 49°18' W 123°13'0 0.2
2017-Dec-01 08:59N 49°18' W 123°13'0 0.1
2017-Dec-01 08:26N 49°18' W 123°12'0 0.1
2017-Dec-01 07:59N 49°18' W 123°12'0 0.0
2017-Dec-01 07:29N 49°18' W 123°12'0 0.0
2017-Dec-01 06:59N 49°18' W 123°12'0 0.0
2017-Dec-01 06:29N 49°18' W 123°12'0 0.1
2017-Dec-01 05:56N 49°18' W 123°12'0 0.0
2017-Dec-01 05:29N 49°18' W 123°12'0 0.0
2017-Dec-01 04:59N 49°18' W 123°12'0 0.0
2017-Dec-01 04:29N 49°18' W 123°12'0 0.0
2017-Dec-01 03:59N 49°18' W 123°12'0 0.2
2017-Dec-01 03:29N 49°18' W 123°13'0 0.4
2017-Dec-01 02:56N 49°18' W 123°13'0 0.1
2017-Dec-01 02:29N 49°18' W 123°13'0 0.0
2017-Dec-01 01:56N 49°18' W 123°13'0 0.0
2017-Dec-01 01:26N 49°18' W 123°13'0 0.1
2017-Dec-01 00:53N 49°18' W 123°13'0 0.1
2017-Dec-01 00:29N 49°18' W 123°13'0 0.0
2017-Nov-30 23:59N 49°18' W 123°13'0 0.0
2017-Nov-30 23:26N 49°18' W 123°13'0 0.1
2017-Nov-30 22:53N 49°18' W 123°13'0 0.0
2017-Nov-30 22:17N 49°18' W 123°13'0 0.0
2017-Nov-30 21:56N 49°18' W 123°13'0 0.1
2017-Nov-30 21:29N 49°18' W 123°13'0 0.2
2017-Nov-30 20:59N 49°18' W 123°13'0 0.1
2017-Nov-30 20:29N 49°18' W 123°13'0 0.1
2017-Nov-30 19:59N 49°18' W 123°13'0 0.0
2017-Nov-30 19:23N 49°18' W 123°13'  
Track history (hours):
 
Tides and Currents Weather Stations Pressure Air Temp Water Temp Dewpoint Dewpoint Depression Visibility Wind Speed Wind Dir Waves Ship Positions

Raiatea

Last reported at 2017-Dec-10 19:23 UTC. Time now 2018-Jan-18 07:48 UTC.
Position N 31°12' W 123°40'.
Warning: this ship's position is 38 days out of date.

Length 292 m; draft 18.4 m.

Type: Ship. MMSI: 538004070.

Date/timePositionNaut miles runAvg speedWind from/ knotsBaromVisibWave heightAir tempDewpointWater temp
2017-Dec-10 19:23N 31°12' W 123°40'513.7
2017-Dec-10 19:00N 31°17' W 123°42'713.6
2017-Dec-10 18:30N 31°23' W 123°46'713.6
2017-Dec-10 18:00N 31°29' W 123°49'713.5
2017-Dec-10 17:30N 31°35' W 123°53'713.5
2017-Dec-10 17:00N 31°41' W 123°57'2113.4
2017-Dec-10 15:25N 32°00' W 124°08'613.2
2017-Dec-10 14:57N 32°06' W 124°11'613.3
2017-Dec-10 14:29N 32°11' W 124°14'6013.5
2017-Dec-10 10:03N 33°04' W 124°48'013.5
2017-Dec-10 10:01N 33°05' W 124°49'713.5
2017-Dec-10 09:30N 33°10' W 124°53'713.4
2017-Dec-10 09:00N 33°16' W 124°57'713.5
2017-Dec-10 08:30N 33°22' W 125°01'713.6
2017-Dec-10 08:00N 33°27' W 125°06'813.5
2017-Dec-10 07:26N 33°34' W 125°11'713.3
2017-Dec-10 06:54N 33°40' W 125°15'1013.2
2017-Dec-10 06:10N 33°48' W 125°21'212.8
2017-Dec-10 06:00N 33°50' W 125°22'612.9
2017-Dec-10 05:31N 33°56' W 125°26'713.1
2017-Dec-10 05:00N 34°01' W 125°30'713.1
2017-Dec-10 04:30N 34°07' W 125°35'713.2
2017-Dec-10 04:01N 34°12' W 125°39'713.2
2017-Dec-10 03:30N 34°18' W 125°43'713.3
2017-Dec-10 03:01N 34°24' W 125°47'713.1
2017-Dec-10 02:31N 34°29' W 125°51'713.3
2017-Dec-10 02:00N 34°35' W 125°55'713.3
2017-Dec-10 01:31N 34°41' W 125°59'713.3
2017-Dec-10 01:00N 34°46' W 126°04'713.5
2017-Dec-10 00:30N 34°52' W 126°08'713.5
2017-Dec-09 23:58N 34°58' W 126°12'613.4
2017-Dec-09 23:30N 35°04' W 126°16'1813.5
2017-Dec-09 22:10N 35°19' W 126°28'413.4
2017-Dec-09 21:52N 35°23' W 126°30'513.1
2017-Dec-09 21:31N 35°27' W 126°33'713.1
2017-Dec-09 21:00N 35°32' W 126°38'713.2
2017-Dec-09 20:31N 35°38' W 126°42'1213.1
2017-Dec-09 19:33N 35°49' W 126°49'113.2
2017-Dec-09 19:29N 35°49' W 126°50'713.4
2017-Dec-09 19:00N 35°55' W 126°54'713.2
2017-Dec-09 18:30N 36°00' W 126°59'21012.6
2017-Dec-09 01:49N 39°09' W 128°56'2012.2
2017-Dec-09 00:11N 39°28' W 129°02'212.1
2017-Dec-09 00:00N 39°30' W 129°03'2611.9
2017-Dec-08 21:50N 39°55' W 129°12'411.6
2017-Dec-08 21:30N 39°59' W 129°13'611.8
2017-Dec-08 21:00N 40°05' W 129°15'611.8
2017-Dec-08 20:30N 40°10' W 129°17'611.9
2017-Dec-08 20:00N 40°16' W 129°19'611.5
2017-Dec-08 19:30N 40°22' W 129°20'611.7
2017-Dec-08 19:00N 40°28' W 129°20'611.7
2017-Dec-08 18:31N 40°34' W 129°20'611.9
2017-Dec-08 18:00N 40°40' W 129°20'612.0
2017-Dec-08 17:31N 40°45' W 129°19'612.0
2017-Dec-08 17:00N 40°51' W 129°19'611.9
2017-Dec-08 16:30N 40°58' W 129°19'611.6
2017-Dec-08 16:00N 41°03' W 129°19'611.7
2017-Dec-08 15:31N 41°09' W 129°19'611.7
2017-Dec-08 15:00N 41°15' W 129°19'611.6
2017-Dec-08 14:30N 41°21' W 129°19'611.8
2017-Dec-08 14:00N 41°27' W 129°19'611.7
2017-Dec-08 13:30N 41°33' W 129°18'611.5
2017-Dec-08 13:00N 41°38' W 129°18'611.7
2017-Dec-08 12:30N 41°44' W 129°19'611.8
2017-Dec-08 12:01N 41°50' W 129°18'612.0
2017-Dec-08 11:30N 41°56' W 129°18'712.0
2017-Dec-08 10:56N 42°03' W 129°18'512.0
2017-Dec-08 10:30N 42°08' W 129°18'612.0
2017-Dec-08 10:01N 42°14' W 129°17'611.8
2017-Dec-08 09:31N 42°20' W 129°17'1216.2
2017-Dec-08 08:45N 42°32' W 129°16'0 0.1
2017-Dec-08 08:28N 42°32' W 129°16'1312.0
2017-Dec-08 07:22N 42°45' W 129°17'412.3
2017-Dec-08 07:00N 42°50' W 129°16'612.0
2017-Dec-08 06:31N 42°56' W 129°16'611.9
2017-Dec-08 06:00N 43°02' W 129°16'612.0
2017-Dec-08 05:30N 43°08' W 129°15'612.5
2017-Dec-08 05:01N 43°14' W 129°14'612.6
2017-Dec-08 04:30N 43°20' W 129°14'912.5
2017-Dec-08 03:47N 43°29' W 129°14'312.2
2017-Dec-08 03:30N 43°33' W 129°14'612.5
2017-Dec-08 03:00N 43°39' W 129°13'712.3
2017-Dec-08 02:28N 43°45' W 129°13'712.3
2017-Dec-08 01:56N 43°52' W 129°12'512.3
2017-Dec-08 01:30N 43°57' W 129°12'612.2
2017-Dec-08 01:00N 44°03' W 129°12'612.0
2017-Dec-08 00:29N 44°09' W 129°11'612.0
2017-Dec-08 00:00N 44°15' W 129°11'612.1
2017-Dec-07 23:30N 44°21' W 129°10'612.2
2017-Dec-07 23:00N 44°27' W 129°10'611.9
2017-Dec-07 22:30N 44°33' W 129°10'611.7
2017-Dec-07 22:00N 44°39' W 129°09'611.8
2017-Dec-07 21:30N 44°45' W 129°09'611.7
2017-Dec-07 21:00N 44°51' W 129°08'611.4
2017-Dec-07 20:31N 44°57' W 129°08'611.5
2017-Dec-07 20:00N 45°02' W 129°08'611.8
2017-Dec-07 19:30N 45°08' W 129°07'611.8
2017-Dec-07 19:00N 45°14' W 129°07'611.8
2017-Dec-07 18:29N 45°20' W 129°06'711.8
2017-Dec-07 17:56N 45°27' W 129°06'1012.1
2017-Dec-07 17:06N 45°37' W 129°05'420.5
2017-Dec-07 16:54N 45°41' W 129°05'3 8.1
2017-Dec-07 16:30N 45°44' W 129°05'712.4
2017-Dec-07 15:58N 45°51' W 129°05'612.4
2017-Dec-07 15:30N 45°56' W 129°04'1712.5
2017-Dec-07 14:11N 46°13' W 129°03'212.4
2017-Dec-07 14:00N 46°15' W 129°03'612.3
2017-Dec-07 13:30N 46°21' W 129°03'611.7
2017-Dec-07 13:00N 46°27' W 129°02'612.7
2017-Dec-07 12:30N 46°31' W 128°55'612.7
2017-Dec-07 12:00N 46°35' W 128°47'612.7
2017-Dec-07 11:30N 46°39' W 128°40'612.7
2017-Dec-07 11:01N 46°43' W 128°33'713.0
2017-Dec-07 10:30N 46°47' W 128°25'612.8
2017-Dec-07 10:01N 46°51' W 128°18'612.7
2017-Dec-07 09:30N 46°55' W 128°11'612.6
2017-Dec-07 09:00N 46°59' W 128°04'612.3
2017-Dec-07 08:30N 47°02' W 127°57'612.1
2017-Dec-07 08:01N 47°06' W 127°50'612.2
2017-Dec-07 07:30N 47°10' W 127°42'611.9
2017-Dec-07 07:00N 47°14' W 127°36'612.0
2017-Dec-07 06:29N 47°18' W 127°28'612.1
2017-Dec-07 06:00N 47°21' W 127°22'612.3
2017-Dec-07 05:31N 47°25' W 127°15'612.2
2017-Dec-07 04:59N 47°29' W 127°07'1512.1
2017-Dec-07 03:43N 47°38' W 126°50'412.0
2017-Dec-07 03:23N 47°41' W 126°45'1112.1
2017-Dec-07 02:27N 47°48' W 126°32'512.0
2017-Dec-07 02:00N 47°51' W 126°25'612.3
2017-Dec-07 01:30N 47°55' W 126°18'1212.1
2017-Dec-07 00:32N 48°02' W 126°05'012.0
2017-Dec-07 00:30N 48°02' W 126°04'712.2
2017-Dec-06 23:57N 48°06' W 125°56'812.3
2017-Dec-06 23:16N 48°11' W 125°46'312.3
2017-Dec-06 23:00N 48°13' W 125°42'612.2
2017-Dec-06 22:29N 48°18' W 125°35'612.0
2017-Dec-06 22:01N 48°21' W 125°28'612.3
2017-Dec-06 21:30N 48°25' W 125°21'612.4
2017-Dec-06 21:00N 48°29' W 125°14'  
2017-Dec-04 10:29N 49°01' W 123°10'0 0.0
2017-Dec-04 09:59N 49°01' W 123°10'0 0.0
2017-Dec-04 09:29N 49°01' W 123°10'0 0.0
2017-Dec-04 09:00N 49°01' W 123°10'0 0.0
2017-Dec-04 08:30N 49°01' W 123°10'0 0.0
2017-Dec-04 07:59N 49°01' W 123°10'0 0.0
2017-Dec-04 07:29N 49°01' W 123°10'0 0.0
2017-Dec-04 06:59N 49°01' W 123°10'0 0.0
2017-Dec-04 06:29N 49°01' W 123°10'0 0.0
2017-Dec-04 05:59N 49°01' W 123°10'0 0.0
2017-Dec-04 05:29N 49°01' W 123°10'0 0.0
2017-Dec-04 04:59N 49°01' W 123°10'0 0.0
2017-Dec-04 04:29N 49°01' W 123°10'0 0.0
2017-Dec-04 04:00N 49°01' W 123°10'0 0.0
2017-Dec-04 03:29N 49°01' W 123°10'0 0.0
2017-Dec-04 02:59N 49°01' W 123°10'0 0.0
2017-Dec-04 02:27N 49°01' W 123°10'0 0.0
2017-Dec-04 01:59N 49°01' W 123°10'0 0.0
2017-Dec-04 01:29N 49°01' W 123°10'0 0.0
2017-Dec-04 00:59N 49°01' W 123°10'0 0.0
2017-Dec-04 00:30N 49°01' W 123°10'0 0.0
2017-Dec-03 23:59N 49°01' W 123°10'0 0.0
2017-Dec-03 23:30N 49°01' W 123°10'0 0.0
2017-Dec-03 23:00N 49°01' W 123°10'0 0.0
2017-Dec-03 22:29N 49°01' W 123°10'0 0.0
2017-Dec-03 21:59N 49°01' W 123°10'0 0.0
2017-Dec-03 21:30N 49°01' W 123°10'0 0.0
2017-Dec-03 21:00N 49°01' W 123°10'0 0.0
2017-Dec-03 20:29N 49°01' W 123°10'0 0.0
2017-Dec-03 19:59N 49°01' W 123°10'0 0.0
2017-Dec-03 19:29N 49°01' W 123°10'0 0.0
2017-Dec-03 18:59N 49°01' W 123°10'0 0.0
2017-Dec-03 18:30N 49°01' W 123°10'0 0.0
2017-Dec-03 17:59N 49°01' W 123°10'0 0.0
2017-Dec-03 17:29N 49°01' W 123°10'0 0.0
2017-Dec-03 16:59N 49°01' W 123°10'0 0.0
2017-Dec-03 16:29N 49°01' W 123°10'0 0.0
2017-Dec-03 15:59N 49°01' W 123°10'0 0.0
2017-Dec-03 15:29N 49°01' W 123°10'0 0.0
2017-Dec-03 15:00N 49°01' W 123°10'0 0.0
2017-Dec-03 14:29N 49°01' W 123°10'0 0.0
2017-Dec-03 13:59N 49°01' W 123°10'0 0.0
2017-Dec-03 13:29N 49°01' W 123°10'0 0.0
2017-Dec-03 13:00N 49°01' W 123°10'0 0.0
2017-Dec-03 12:29N 49°01' W 123°10'0 0.0
2017-Dec-03 12:00N 49°01' W 123°10'0 0.0
2017-Dec-03 11:30N 49°01' W 123°10'0 0.0
2017-Dec-03 11:00N 49°01' W 123°10'0 0.0
2017-Dec-03 10:29N 49°01' W 123°10'0 0.0
2017-Dec-03 09:59N 49°01' W 123°10'0 0.0
2017-Dec-03 09:29N 49°01' W 123°10'0 0.0
2017-Dec-03 08:59N 49°01' W 123°10'0 0.0
2017-Dec-03 08:29N 49°01' W 123°10'0 0.0
2017-Dec-03 07:56N 49°01' W 123°10'0 0.0
2017-Dec-03 07:29N 49°01' W 123°10'0 0.0
2017-Dec-03 06:44N 49°01' W 123°10'0 0.0
2017-Dec-03 06:30N 49°01' W 123°10'0 0.0
2017-Dec-03 05:59N 49°01' W 123°10'0 0.0
2017-Dec-03 05:26N 49°01' W 123°10'0 0.0
2017-Dec-03 04:59N 49°01' W 123°10'0 0.0
2017-Dec-03 04:29N 49°01' W 123°10'0 0.0
2017-Dec-03 03:57N 49°01' W 123°10'0 0.0
2017-Dec-03 03:29N 49°01' W 123°10'0 0.0
2017-Dec-03 02:59N 49°01' W 123°10'0 0.0
2017-Dec-03 02:26N 49°01' W 123°10'0 0.0
2017-Dec-03 01:53N 49°01' W 123°10'0 0.0
2017-Dec-03 01:30N 49°01' W 123°10'0 0.0
2017-Dec-03 00:59N 49°01' W 123°10'0 0.0
2017-Dec-03 00:29N 49°01' W 123°10'0 0.0
2017-Dec-02 23:59N 49°01' W 123°10'0 0.0
2017-Dec-02 23:30N 49°01' W 123°10'0 0.0
2017-Dec-02 22:59N 49°01' W 123°10'0 0.0
2017-Dec-02 22:24N 49°01' W 123°10'0 0.0
2017-Dec-02 21:59N 49°01' W 123°10'0 0.0
2017-Dec-02 21:29N 49°01' W 123°10'0 0.0
2017-Dec-02 21:00N 49°01' W 123°10'0 0.0
2017-Dec-02 20:29N 49°01' W 123°10'0 0.0
2017-Dec-02 20:00N 49°01' W 123°10'0 0.2
2017-Dec-02 19:30N 49°01' W 123°10'1 2.8
2017-Dec-02 19:00N 49°01' W 123°12'3 6.9
2017-Dec-02 18:30N 49°01' W 123°17'5 9.1
2017-Dec-02 18:01N 49°04' W 123°23'4 8.5
2017-Dec-02 17:30N 49°08' W 123°26'511.0
2017-Dec-02 17:01N 49°12' W 123°22'612.7
2017-Dec-02 16:30N 49°18' W 123°17'2 4.7
2017-Dec-02 15:59N 49°18' W 123°13'0 0.0
2017-Dec-02 15:29N 49°18' W 123°13'0 0.1
2017-Dec-02 14:59N 49°18' W 123°13'0 0.1
2017-Dec-02 14:29N 49°18' W 123°13'0 0.1
2017-Dec-02 13:59N 49°18' W 123°13'0 0.0
2017-Dec-02 13:26N 49°18' W 123°13'0 0.0
2017-Dec-02 12:59N 49°18' W 123°13'0 0.1
2017-Dec-02 12:29N 49°18' W 123°13'0 0.0
2017-Dec-02 11:59N 49°18' W 123°13'0 0.0
2017-Dec-02 11:26N 49°18' W 123°13'0 0.0
2017-Dec-02 10:59N 49°18' W 123°13'0 0.1
2017-Dec-02 10:29N 49°18' W 123°13'0 0.1
2017-Dec-02 09:59N 49°18' W 123°13'0 0.0
2017-Dec-02 09:29N 49°18' W 123°13'0 0.0
2017-Dec-02 08:59N 49°18' W 123°13'0 0.1
2017-Dec-02 08:29N 49°18' W 123°13'0 0.1
2017-Dec-02 07:56N 49°18' W 123°13'0 0.1
2017-Dec-02 07:29N 49°18' W 123°13'0 0.1
2017-Dec-02 06:59N 49°18' W 123°13'0 0.0
2017-Dec-02 06:29N 49°18' W 123°13'0 0.2
2017-Dec-02 05:59N 49°18' W 123°13'0 0.3
2017-Dec-02 05:29N 49°18' W 123°13'0 0.1
2017-Dec-02 04:59N 49°18' W 123°13'0 0.1
2017-Dec-02 04:29N 49°18' W 123°13'0 0.1
2017-Dec-02 03:59N 49°18' W 123°13'0 0.0
2017-Dec-02 03:29N 49°18' W 123°13'0 0.0
2017-Dec-02 02:59N 49°18' W 123°13'0 0.0
2017-Dec-02 02:26N 49°18' W 123°13'0 0.0
2017-Dec-02 01:59N 49°18' W 123°13'0 0.0
2017-Dec-02 01:26N 49°18' W 123°13'0 0.0
2017-Dec-02 00:59N 49°18' W 123°13'0 0.2
2017-Dec-02 00:29N 49°18' W 123°13'0 0.2
2017-Dec-01 23:59N 49°18' W 123°13'0 0.1
2017-Dec-01 23:26N 49°18' W 123°13'0 0.1
2017-Dec-01 22:59N 49°18' W 123°13'0 0.0
2017-Dec-01 22:29N 49°18' W 123°13'0 0.1
2017-Dec-01 21:59N 49°18' W 123°12'0 0.0
2017-Dec-01 21:29N 49°18' W 123°12'0 0.0
2017-Dec-01 20:56N 49°18' W 123°12'0 0.0
2017-Dec-01 20:29N 49°18' W 123°12'0 0.0
2017-Dec-01 19:53N 49°18' W 123°12'0 0.0
2017-Dec-01 19:29N 49°18' W 123°12'0 0.0
2017-Dec-01 18:59N 49°18' W 123°12'0 0.1
2017-Dec-01 18:29N 49°18' W 123°12'0 0.1
2017-Dec-01 17:59N 49°18' W 123°12'0 0.3
2017-Dec-01 17:29N 49°18' W 123°13'0 0.1
2017-Dec-01 16:56N 49°18' W 123°13'0 0.2
2017-Dec-01 16:29N 49°18' W 123°13'0 0.1
2017-Dec-01 15:59N 49°18' W 123°13'0 0.2
2017-Dec-01 15:29N 49°18' W 123°13'0 0.1
2017-Dec-01 14:56N 49°18' W 123°13'0 0.0
2017-Dec-01 14:26N 49°18' W 123°13'0 0.1
2017-Dec-01 13:56N 49°18' W 123°13'0 0.1
2017-Dec-01 13:29N 49°18' W 123°13'0 0.0
2017-Dec-01 12:59N 49°18' W 123°13'0 0.0
2017-Dec-01 12:29N 49°18' W 123°13'0 0.1
2017-Dec-01 11:59N 49°18' W 123°13'0 0.1
2017-Dec-01 11:26N 49°18' W 123°13'0 0.1
2017-Dec-01 10:56N 49°18' W 123°13'0 0.0
2017-Dec-01 10:29N 49°18' W 123°13'0 0.0
2017-Dec-01 09:59N 49°18' W 123°13'0 0.0
2017-Dec-01 09:29N 49°18' W 123°13'0 0.2
2017-Dec-01 08:59N 49°18' W 123°13'0 0.1
2017-Dec-01 08:26N 49°18' W 123°12'0 0.1
2017-Dec-01 07:59N 49°18' W 123°12'0 0.0
2017-Dec-01 07:29N 49°18' W 123°12'0 0.0
2017-Dec-01 06:59N 49°18' W 123°12'0 0.0
2017-Dec-01 06:29N 49°18' W 123°12'0 0.1
2017-Dec-01 05:56N 49°18' W 123°12'0 0.0
2017-Dec-01 05:29N 49°18' W 123°12'0 0.0
2017-Dec-01 04:59N 49°18' W 123°12'0 0.0
2017-Dec-01 04:29N 49°18' W 123°12'0 0.0
2017-Dec-01 03:59N 49°18' W 123°12'0 0.2
2017-Dec-01 03:29N 49°18' W 123°13'0 0.4
2017-Dec-01 02:56N 49°18' W 123°13'0 0.1
2017-Dec-01 02:29N 49°18' W 123°13'0 0.0
2017-Dec-01 01:56N 49°18' W 123°13'0 0.0
2017-Dec-01 01:26N 49°18' W 123°13'0 0.1
2017-Dec-01 00:53N 49°18' W 123°13'0 0.1
2017-Dec-01 00:29N 49°18' W 123°13'0 0.0
2017-Nov-30 23:59N 49°18' W 123°13'0 0.0
2017-Nov-30 23:26N 49°18' W 123°13'0 0.1
2017-Nov-30 22:53N 49°18' W 123°13'0 0.0
2017-Nov-30 22:17N 49°18' W 123°13'0 0.0
2017-Nov-30 21:56N 49°18' W 123°13'0 0.1
2017-Nov-30 21:29N 49°18' W 123°13'0 0.2
2017-Nov-30 20:59N 49°18' W 123°13'0 0.1
2017-Nov-30 20:29N 49°18' W 123°13'0 0.1
2017-Nov-30 19:59N 49°18' W 123°13'0 0.0
2017-Nov-30 19:23N 49°18' W 123°13'  

Dump ship's entire track history